sensor_id;sensor_type;location;lat;lon;timestamp;P1;durP1;ratioP1;P2;durP2;ratioP2
17844;SDS011;9047;53.486;10.218;2024-03-08T00:00:38;29.38;;;15.05;;
17844;SDS011;9047;53.486;10.218;2024-03-08T00:03:06;31.50;;;16.02;;
17844;SDS011;9047;53.486;10.218;2024-03-08T00:05:36;30.00;;;15.60;;
17844;SDS011;9047;53.486;10.218;2024-03-08T00:08:05;28.45;;;15.63;;
17844;SDS011;9047;53.486;10.218;2024-03-08T00:10:35;28.05;;;14.90;;
17844;SDS011;9047;53.486;10.218;2024-03-08T00:13:03;31.60;;;16.05;;
17844;SDS011;9047;53.486;10.218;2024-03-08T00:15:32;31.38;;;15.30;;
17844;SDS011;9047;53.486;10.218;2024-03-08T00:18:03;32.83;;;15.45;;
17844;SDS011;9047;53.486;10.218;2024-03-08T00:20:30;32.05;;;16.52;;
17844;SDS011;9047;53.486;10.218;2024-03-08T00:22:58;30.73;;;15.75;;
17844;SDS011;9047;53.486;10.218;2024-03-08T00:25:25;29.30;;;15.30;;
17844;SDS011;9047;53.486;10.218;2024-03-08T00:27:54;32.20;;;15.07;;
17844;SDS011;9047;53.486;10.218;2024-03-08T00:30:27;29.80;;;15.93;;
17844;SDS011;9047;53.486;10.218;2024-03-08T00:32:56;33.05;;;15.77;;
17844;SDS011;9047;53.486;10.218;2024-03-08T00:35:25;32.70;;;15.25;;
17844;SDS011;9047;53.486;10.218;2024-03-08T00:37:51;30.65;;;16.23;;
17844;SDS011;9047;53.486;10.218;2024-03-08T00:40:23;31.17;;;15.48;;
17844;SDS011;9047;53.486;10.218;2024-03-08T00:42:50;29.60;;;15.65;;
17844;SDS011;9047;53.486;10.218;2024-03-08T00:45:29;33.03;;;16.33;;
17844;SDS011;9047;53.486;10.218;2024-03-08T00:48:08;34.78;;;16.17;;
17844;SDS011;9047;53.486;10.218;2024-03-08T00:50:36;33.17;;;16.23;;
17844;SDS011;9047;53.486;10.218;2024-03-08T00:53:03;31.05;;;16.52;;
17844;SDS011;9047;53.486;10.218;2024-03-08T00:55:34;34.30;;;16.17;;
17844;SDS011;9047;53.486;10.218;2024-03-08T00:58:01;31.38;;;15.70;;
17844;SDS011;9047;53.486;10.218;2024-03-08T01:00:28;31.60;;;16.45;;
17844;SDS011;9047;53.486;10.218;2024-03-08T01:02:56;33.53;;;16.15;;
17844;SDS011;9047;53.486;10.218;2024-03-08T01:05:23;31.73;;;15.48;;
17844;SDS011;9047;53.486;10.218;2024-03-08T01:07:50;31.08;;;15.65;;
17844;SDS011;9047;53.486;10.218;2024-03-08T01:10:18;32.88;;;16.40;;
17844;SDS011;9047;53.486;10.218;2024-03-08T01:12:47;33.47;;;15.90;;
17844;SDS011;9047;53.486;10.218;2024-03-08T01:15:15;34.03;;;16.15;;
17844;SDS011;9047;53.486;10.218;2024-03-08T01:17:44;35.97;;;16.20;;
17844;SDS011;9047;53.486;10.218;2024-03-08T01:20:11;33.58;;;16.35;;
17844;SDS011;9047;53.486;10.218;2024-03-08T01:22:38;37.00;;;17.23;;
17844;SDS011;9047;53.486;10.218;2024-03-08T01:25:08;31.63;;;15.95;;
17844;SDS011;9047;53.486;10.218;2024-03-08T01:27:35;32.95;;;16.50;;
17844;SDS011;9047;53.486;10.218;2024-03-08T01:30:04;33.50;;;16.20;;
17844;SDS011;9047;53.486;10.218;2024-03-08T01:32:34;36.17;;;17.15;;
17844;SDS011;9047;53.486;10.218;2024-03-08T01:35:01;37.35;;;17.08;;
17844;SDS011;9047;53.486;10.218;2024-03-08T01:37:29;34.20;;;17.20;;
17844;SDS011;9047;53.486;10.218;2024-03-08T01:39:56;35.17;;;16.33;;
17844;SDS011;9047;53.486;10.218;2024-03-08T01:42:23;36.75;;;16.63;;
17844;SDS011;9047;53.486;10.218;2024-03-08T01:44:50;35.38;;;16.63;;
17844;SDS011;9047;53.486;10.218;2024-03-08T01:47:19;36.00;;;17.25;;
17844;SDS011;9047;53.486;10.218;2024-03-08T01:49:50;35.17;;;17.02;;
17844;SDS011;9047;53.486;10.218;2024-03-08T01:52:17;37.08;;;17.27;;
17844;SDS011;9047;53.486;10.218;2024-03-08T01:54:47;35.70;;;16.90;;
17844;SDS011;9047;53.486;10.218;2024-03-08T01:57:17;36.70;;;16.98;;
17844;SDS011;9047;53.486;10.218;2024-03-08T01:59:44;34.67;;;17.05;;
17844;SDS011;9047;53.486;10.218;2024-03-08T02:02:11;37.60;;;17.60;;
17844;SDS011;9047;53.486;10.218;2024-03-08T02:04:43;37.10;;;17.50;;
17844;SDS011;9047;53.486;10.218;2024-03-08T02:07:11;39.35;;;18.00;;
17844;SDS011;9047;53.486;10.218;2024-03-08T02:09:40;35.83;;;16.98;;
17844;SDS011;9047;53.486;10.218;2024-03-08T02:12:08;39.67;;;17.30;;
17844;SDS011;9047;53.486;10.218;2024-03-08T02:14:37;35.65;;;17.45;;
17844;SDS011;9047;53.486;10.218;2024-03-08T02:17:05;36.63;;;17.27;;
17844;SDS011;9047;53.486;10.218;2024-03-08T02:19:32;39.92;;;17.75;;
17844;SDS011;9047;53.486;10.218;2024-03-08T02:22:03;39.67;;;17.13;;
17844;SDS011;9047;53.486;10.218;2024-03-08T02:24:31;40.20;;;18.25;;
17844;SDS011;9047;53.486;10.218;2024-03-08T02:26:59;37.30;;;17.63;;
17844;SDS011;9047;53.486;10.218;2024-03-08T02:29:28;37.38;;;17.50;;
17844;SDS011;9047;53.486;10.218;2024-03-08T02:31:57;36.85;;;18.00;;
17844;SDS011;9047;53.486;10.218;2024-03-08T02:34:23;36.20;;;17.90;;
17844;SDS011;9047;53.486;10.218;2024-03-08T02:36:51;39.80;;;17.60;;
17844;SDS011;9047;53.486;10.218;2024-03-08T02:39:21;37.22;;;18.30;;
17844;SDS011;9047;53.486;10.218;2024-03-08T02:41:49;39.53;;;18.23;;
17844;SDS011;9047;53.486;10.218;2024-03-08T02:44:17;43.75;;;18.45;;
17844;SDS011;9047;53.486;10.218;2024-03-08T02:46:46;41.63;;;18.35;;
17844;SDS011;9047;53.486;10.218;2024-03-08T02:49:13;41.42;;;19.05;;
17844;SDS011;9047;53.486;10.218;2024-03-08T02:51:41;38.88;;;18.55;;
17844;SDS011;9047;53.486;10.218;2024-03-08T02:54:08;43.22;;;19.13;;
17844;SDS011;9047;53.486;10.218;2024-03-08T02:56:39;40.50;;;18.25;;
17844;SDS011;9047;53.486;10.218;2024-03-08T02:59:07;42.75;;;19.05;;
17844;SDS011;9047;53.486;10.218;2024-03-08T03:01:34;38.75;;;18.23;;
17844;SDS011;9047;53.486;10.218;2024-03-08T03:04:04;41.13;;;18.55;;
17844;SDS011;9047;53.486;10.218;2024-03-08T03:06:31;43.92;;;18.90;;
17844;SDS011;9047;53.486;10.218;2024-03-08T03:09:00;45.42;;;19.42;;
17844;SDS011;9047;53.486;10.218;2024-03-08T03:11:31;41.63;;;19.35;;
17844;SDS011;9047;53.486;10.218;2024-03-08T03:14:00;40.47;;;18.73;;
17844;SDS011;9047;53.486;10.218;2024-03-08T03:16:27;40.03;;;18.85;;
17844;SDS011;9047;53.486;10.218;2024-03-08T03:18:54;43.15;;;19.10;;
17844;SDS011;9047;53.486;10.218;2024-03-08T03:21:22;41.40;;;19.48;;
17844;SDS011;9047;53.486;10.218;2024-03-08T03:23:49;44.08;;;19.17;;
17844;SDS011;9047;53.486;10.218;2024-03-08T03:26:19;45.97;;;20.08;;
17844;SDS011;9047;53.486;10.218;2024-03-08T03:28:47;47.80;;;19.85;;
17844;SDS011;9047;53.486;10.218;2024-03-08T03:31:15;43.30;;;19.77;;
17844;SDS011;9047;53.486;10.218;2024-03-08T03:33:44;41.67;;;19.27;;
17844;SDS011;9047;53.486;10.218;2024-03-08T03:36:12;44.05;;;19.63;;
17844;SDS011;9047;53.486;10.218;2024-03-08T03:38:41;46.95;;;20.88;;
17844;SDS011;9047;53.486;10.218;2024-03-08T03:41:10;48.35;;;20.02;;
17844;SDS011;9047;53.486;10.218;2024-03-08T03:43:41;45.53;;;20.30;;
17844;SDS011;9047;53.486;10.218;2024-03-08T03:46:08;44.83;;;19.92;;
17844;SDS011;9047;53.486;10.218;2024-03-08T03:48:42;47.50;;;20.45;;
17844;SDS011;9047;53.486;10.218;2024-03-08T03:51:09;46.85;;;20.13;;
17844;SDS011;9047;53.486;10.218;2024-03-08T03:53:37;45.53;;;19.95;;
17844;SDS011;9047;53.486;10.218;2024-03-08T03:56:06;44.60;;;19.55;;
17844;SDS011;9047;53.486;10.218;2024-03-08T03:58:33;46.55;;;20.67;;
17844;SDS011;9047;53.486;10.218;2024-03-08T04:01:01;45.85;;;20.17;;
17844;SDS011;9047;53.486;10.218;2024-03-08T04:03:30;45.35;;;19.48;;
17844;SDS011;9047;53.486;10.218;2024-03-08T04:05:58;42.13;;;19.27;;
17844;SDS011;9047;53.486;10.218;2024-03-08T04:08:26;47.65;;;20.73;;
17844;SDS011;9047;53.486;10.218;2024-03-08T04:10:54;47.45;;;21.23;;
17844;SDS011;9047;53.486;10.218;2024-03-08T04:13:21;47.35;;;20.15;;
17844;SDS011;9047;53.486;10.218;2024-03-08T04:15:48;46.20;;;20.35;;
17844;SDS011;9047;53.486;10.218;2024-03-08T04:18:21;43.85;;;19.67;;
17844;SDS011;9047;53.486;10.218;2024-03-08T04:20:49;46.55;;;20.63;;
17844;SDS011;9047;53.486;10.218;2024-03-08T04:23:17;49.42;;;20.63;;
17844;SDS011;9047;53.486;10.218;2024-03-08T04:25:44;47.05;;;19.95;;
17844;SDS011;9047;53.486;10.218;2024-03-08T04:28:12;46.10;;;20.00;;
17844;SDS011;9047;53.486;10.218;2024-03-08T04:30:39;45.42;;;20.48;;
17844;SDS011;9047;53.486;10.218;2024-03-08T04:33:06;44.08;;;20.00;;
17844;SDS011;9047;53.486;10.218;2024-03-08T04:35:33;45.28;;;20.67;;
17844;SDS011;9047;53.486;10.218;2024-03-08T04:38:02;49.40;;;20.45;;
17844;SDS011;9047;53.486;10.218;2024-03-08T04:40:33;44.50;;;20.83;;
17844;SDS011;9047;53.486;10.218;2024-03-08T04:43:00;47.70;;;20.73;;
17844;SDS011;9047;53.486;10.218;2024-03-08T04:45:27;50.88;;;22.02;;
17844;SDS011;9047;53.486;10.218;2024-03-08T04:47:58;48.75;;;21.35;;
17844;SDS011;9047;53.486;10.218;2024-03-08T04:50:25;53.00;;;21.80;;
17844;SDS011;9047;53.486;10.218;2024-03-08T04:52:57;48.25;;;21.25;;
17844;SDS011;9047;53.486;10.218;2024-03-08T04:55:25;48.58;;;19.95;;
17844;SDS011;9047;53.486;10.218;2024-03-08T04:57:55;52.25;;;22.40;;
17844;SDS011;9047;53.486;10.218;2024-03-08T05:00:22;52.97;;;22.00;;
17844;SDS011;9047;53.486;10.218;2024-03-08T05:02:50;56.85;;;23.05;;
17844;SDS011;9047;53.486;10.218;2024-03-08T05:05:18;55.33;;;22.67;;
17844;SDS011;9047;53.486;10.218;2024-03-08T05:07:53;57.15;;;22.65;;
17844;SDS011;9047;53.486;10.218;2024-03-08T05:10:26;56.55;;;22.90;;
17844;SDS011;9047;53.486;10.218;2024-03-08T05:12:55;51.78;;;22.20;;
17844;SDS011;9047;53.486;10.218;2024-03-08T05:15:22;56.10;;;23.10;;
17844;SDS011;9047;53.486;10.218;2024-03-08T05:17:49;49.00;;;21.00;;
17844;SDS011;9047;53.486;10.218;2024-03-08T05:20:16;48.72;;;21.17;;
17844;SDS011;9047;53.486;10.218;2024-03-08T05:22:44;51.50;;;20.58;;
17844;SDS011;9047;53.486;10.218;2024-03-08T05:25:13;56.90;;;21.65;;
17844;SDS011;9047;53.486;10.218;2024-03-08T05:27:43;53.15;;;22.30;;
17844;SDS011;9047;53.486;10.218;2024-03-08T05:30:19;50.28;;;21.67;;
17844;SDS011;9047;53.486;10.218;2024-03-08T05:32:47;56.45;;;22.83;;
17844;SDS011;9047;53.486;10.218;2024-03-08T05:35:15;48.67;;;22.23;;
17844;SDS011;9047;53.486;10.218;2024-03-08T05:37:42;50.15;;;21.65;;
17844;SDS011;9047;53.486;10.218;2024-03-08T05:40:09;49.60;;;21.75;;
17844;SDS011;9047;53.486;10.218;2024-03-08T05:42:40;52.05;;;21.58;;
17844;SDS011;9047;53.486;10.218;2024-03-08T05:45:09;53.20;;;22.05;;
17844;SDS011;9047;53.486;10.218;2024-03-08T05:47:38;54.90;;;21.88;;
17844;SDS011;9047;53.486;10.218;2024-03-08T05:50:06;55.67;;;22.08;;
17844;SDS011;9047;53.486;10.218;2024-03-08T05:52:36;49.78;;;21.45;;
17844;SDS011;9047;53.486;10.218;2024-03-08T05:55:04;52.72;;;22.02;;
17844;SDS011;9047;53.486;10.218;2024-03-08T05:57:32;54.25;;;22.48;;
17844;SDS011;9047;53.486;10.218;2024-03-08T05:59:59;52.20;;;21.52;;
17844;SDS011;9047;53.486;10.218;2024-03-08T06:02:26;53.00;;;22.23;;
17844;SDS011;9047;53.486;10.218;2024-03-08T06:04:56;58.22;;;22.27;;
17844;SDS011;9047;53.486;10.218;2024-03-08T06:07:23;54.05;;;22.02;;
17844;SDS011;9047;53.486;10.218;2024-03-08T06:09:51;51.15;;;21.23;;
17844;SDS011;9047;53.486;10.218;2024-03-08T06:12:18;57.42;;;23.15;;
17844;SDS011;9047;53.486;10.218;2024-03-08T06:14:45;52.95;;;22.70;;
17844;SDS011;9047;53.486;10.218;2024-03-08T06:17:12;55.50;;;23.13;;
17844;SDS011;9047;53.486;10.218;2024-03-08T06:19:41;50.83;;;22.05;;
17844;SDS011;9047;53.486;10.218;2024-03-08T06:22:11;54.03;;;22.90;;
17844;SDS011;9047;53.486;10.218;2024-03-08T06:24:39;51.10;;;22.00;;
17844;SDS011;9047;53.486;10.218;2024-03-08T06:27:06;52.03;;;21.05;;
17844;SDS011;9047;53.486;10.218;2024-03-08T06:29:34;55.33;;;23.45;;
17844;SDS011;9047;53.486;10.218;2024-03-08T06:32:01;59.70;;;22.95;;
17844;SDS011;9047;53.486;10.218;2024-03-08T06:34:32;52.63;;;22.33;;
17844;SDS011;9047;53.486;10.218;2024-03-08T06:37:00;49.55;;;22.50;;
17844;SDS011;9047;53.486;10.218;2024-03-08T06:39:29;53.67;;;22.77;;
17844;SDS011;9047;53.486;10.218;2024-03-08T06:41:57;50.28;;;22.00;;
17844;SDS011;9047;53.486;10.218;2024-03-08T06:44:25;50.80;;;22.05;;
17844;SDS011;9047;53.486;10.218;2024-03-08T06:46:52;45.20;;;20.23;;
17844;SDS011;9047;53.486;10.218;2024-03-08T06:49:19;45.38;;;22.52;;
17844;SDS011;9047;53.486;10.218;2024-03-08T06:51:46;41.25;;;19.90;;
17844;SDS011;9047;53.486;10.218;2024-03-08T06:54:13;37.15;;;18.95;;
17844;SDS011;9047;53.486;10.218;2024-03-08T06:56:45;38.40;;;18.88;;
17844;SDS011;9047;53.486;10.218;2024-03-08T06:59:13;37.55;;;18.00;;
17844;SDS011;9047;53.486;10.218;2024-03-08T07:01:43;36.70;;;17.65;;
17844;SDS011;9047;53.486;10.218;2024-03-08T07:04:11;36.97;;;17.80;;
17844;SDS011;9047;53.486;10.218;2024-03-08T07:06:40;36.90;;;18.58;;
17844;SDS011;9047;53.486;10.218;2024-03-08T07:09:07;37.72;;;18.08;;
17844;SDS011;9047;53.486;10.218;2024-03-08T07:11:34;35.05;;;17.48;;
17844;SDS011;9047;53.486;10.218;2024-03-08T07:14:03;38.15;;;18.67;;
17844;SDS011;9047;53.486;10.218;2024-03-08T07:16:31;36.50;;;18.58;;
17844;SDS011;9047;53.486;10.218;2024-03-08T07:18:59;36.95;;;18.60;;
17844;SDS011;9047;53.486;10.218;2024-03-08T07:21:26;35.20;;;17.63;;
17844;SDS011;9047;53.486;10.218;2024-03-08T07:23:54;34.97;;;17.85;;
17844;SDS011;9047;53.486;10.218;2024-03-08T07:26:46;31.98;;;17.33;;
17844;SDS011;9047;53.486;10.218;2024-03-08T07:29:18;37.90;;;17.95;;
17844;SDS011;9047;53.486;10.218;2024-03-08T07:31:46;35.05;;;17.85;;
17844;SDS011;9047;53.486;10.218;2024-03-08T07:34:21;34.45;;;18.60;;
17844;SDS011;9047;53.486;10.218;2024-03-08T07:36:48;37.80;;;18.15;;
17844;SDS011;9047;53.486;10.218;2024-03-08T07:39:16;35.35;;;17.88;;
17844;SDS011;9047;53.486;10.218;2024-03-08T07:41:44;37.92;;;18.73;;
17844;SDS011;9047;53.486;10.218;2024-03-08T07:44:13;37.15;;;18.45;;
17844;SDS011;9047;53.486;10.218;2024-03-08T07:46:42;36.65;;;18.75;;
17844;SDS011;9047;53.486;10.218;2024-03-08T07:49:08;39.10;;;18.95;;
17844;SDS011;9047;53.486;10.218;2024-03-08T07:51:40;37.88;;;19.00;;
17844;SDS011;9047;53.486;10.218;2024-03-08T07:54:08;36.53;;;18.75;;
17844;SDS011;9047;53.486;10.218;2024-03-08T07:56:46;37.08;;;19.73;;
17844;SDS011;9047;53.486;10.218;2024-03-08T07:59:19;39.65;;;19.08;;
17844;SDS011;9047;53.486;10.218;2024-03-08T08:01:49;38.10;;;19.27;;
17844;SDS011;9047;53.486;10.218;2024-03-08T08:04:26;36.70;;;18.75;;
17844;SDS011;9047;53.486;10.218;2024-03-08T08:06:58;37.63;;;19.13;;
17844;SDS011;9047;53.486;10.218;2024-03-08T08:09:27;43.80;;;20.00;;
17844;SDS011;9047;53.486;10.218;2024-03-08T08:12:00;36.22;;;19.00;;
17844;SDS011;9047;53.486;10.218;2024-03-08T08:14:28;36.25;;;18.50;;
17844;SDS011;9047;53.486;10.218;2024-03-08T08:16:59;37.60;;;19.15;;
17844;SDS011;9047;53.486;10.218;2024-03-08T08:19:29;37.50;;;19.38;;
17844;SDS011;9047;53.486;10.218;2024-03-08T08:21:58;37.00;;;18.85;;
17844;SDS011;9047;53.486;10.218;2024-03-08T08:24:27;37.47;;;18.63;;
17844;SDS011;9047;53.486;10.218;2024-03-08T08:26:54;37.22;;;18.48;;
17844;SDS011;9047;53.486;10.218;2024-03-08T08:29:22;38.10;;;18.33;;
17844;SDS011;9047;53.486;10.218;2024-03-08T08:31:52;37.70;;;18.40;;
17844;SDS011;9047;53.486;10.218;2024-03-08T08:34:22;38.25;;;18.50;;
17844;SDS011;9047;53.486;10.218;2024-03-08T08:36:51;35.65;;;18.00;;
17844;SDS011;9047;53.486;10.218;2024-03-08T08:39:19;35.33;;;18.80;;
17844;SDS011;9047;53.486;10.218;2024-03-08T08:41:47;37.13;;;18.58;;
17844;SDS011;9047;53.486;10.218;2024-03-08T08:44:14;33.72;;;17.88;;
17844;SDS011;9047;53.486;10.218;2024-03-08T08:46:43;36.42;;;18.27;;
17844;SDS011;9047;53.486;10.218;2024-03-08T08:49:10;36.13;;;17.98;;
17844;SDS011;9047;53.486;10.218;2024-03-08T08:51:50;35.80;;;18.40;;
17844;SDS011;9047;53.486;10.218;2024-03-08T08:54:17;33.90;;;17.90;;
17844;SDS011;9047;53.486;10.218;2024-03-08T08:56:47;35.10;;;17.38;;
17844;SDS011;9047;53.486;10.218;2024-03-08T08:59:15;36.33;;;18.35;;
17844;SDS011;9047;53.486;10.218;2024-03-08T09:01:44;33.05;;;17.42;;
17844;SDS011;9047;53.486;10.218;2024-03-08T09:04:18;33.63;;;17.70;;
17844;SDS011;9047;53.486;10.218;2024-03-08T09:06:46;33.35;;;16.75;;
17844;SDS011;9047;53.486;10.218;2024-03-08T09:09:15;33.15;;;17.52;;
17844;SDS011;9047;53.486;10.218;2024-03-08T09:11:43;32.45;;;17.67;;
17844;SDS011;9047;53.486;10.218;2024-03-08T09:14:11;31.33;;;16.73;;
17844;SDS011;9047;53.486;10.218;2024-03-08T09:16:39;32.28;;;17.00;;
17844;SDS011;9047;53.486;10.218;2024-03-08T09:19:07;29.77;;;16.17;;
17844;SDS011;9047;53.486;10.218;2024-03-08T09:21:38;29.05;;;16.33;;
17844;SDS011;9047;53.486;10.218;2024-03-08T09:24:06;31.33;;;16.58;;
17844;SDS011;9047;53.486;10.218;2024-03-08T09:26:35;31.90;;;16.70;;
17844;SDS011;9047;53.486;10.218;2024-03-08T09:29:03;30.35;;;15.98;;
17844;SDS011;9047;53.486;10.218;2024-03-08T09:31:32;31.33;;;16.23;;
17844;SDS011;9047;53.486;10.218;2024-03-08T09:34:00;28.67;;;15.48;;
17844;SDS011;9047;53.486;10.218;2024-03-08T09:36:27;28.45;;;16.30;;
17844;SDS011;9047;53.486;10.218;2024-03-08T09:38:57;32.25;;;16.42;;
17844;SDS011;9047;53.486;10.218;2024-03-08T09:41:26;33.85;;;16.30;;
17844;SDS011;9047;53.486;10.218;2024-03-08T09:43:55;29.65;;;15.63;;
17844;SDS011;9047;53.486;10.218;2024-03-08T09:46:26;29.88;;;15.93;;
17844;SDS011;9047;53.486;10.218;2024-03-08T09:48:53;30.25;;;16.10;;
17844;SDS011;9047;53.486;10.218;2024-03-08T09:51:21;28.63;;;16.23;;
17844;SDS011;9047;53.486;10.218;2024-03-08T09:53:56;30.15;;;15.48;;
17844;SDS011;9047;53.486;10.218;2024-03-08T09:56:26;30.38;;;16.95;;
17844;SDS011;9047;53.486;10.218;2024-03-08T09:58:56;29.35;;;16.38;;
17844;SDS011;9047;53.486;10.218;2024-03-08T10:01:46;32.15;;;16.73;;
17844;SDS011;9047;53.486;10.218;2024-03-08T10:04:14;30.35;;;16.50;;
17844;SDS011;9047;53.486;10.218;2024-03-08T10:06:42;28.05;;;16.42;;
17844;SDS011;9047;53.486;10.218;2024-03-08T10:09:11;29.33;;;16.30;;
17844;SDS011;9047;53.486;10.218;2024-03-08T10:11:39;27.33;;;15.43;;
17844;SDS011;9047;53.486;10.218;2024-03-08T10:14:12;29.15;;;16.40;;
17844;SDS011;9047;53.486;10.218;2024-03-08T10:16:40;30.85;;;16.30;;
17844;SDS011;9047;53.486;10.218;2024-03-08T10:19:14;28.08;;;16.08;;
17844;SDS011;9047;53.486;10.218;2024-03-08T10:21:47;28.48;;;15.82;;
17844;SDS011;9047;53.486;10.218;2024-03-08T10:24:17;29.08;;;15.63;;
17844;SDS011;9047;53.486;10.218;2024-03-08T10:26:44;28.80;;;16.13;;
17844;SDS011;9047;53.486;10.218;2024-03-08T10:29:14;28.67;;;16.05;;
17844;SDS011;9047;53.486;10.218;2024-03-08T10:31:42;30.67;;;16.20;;
17844;SDS011;9047;53.486;10.218;2024-03-08T10:34:11;26.75;;;15.05;;
17844;SDS011;9047;53.486;10.218;2024-03-08T10:36:38;27.80;;;15.88;;
17844;SDS011;9047;53.486;10.218;2024-03-08T10:39:09;25.50;;;15.23;;
17844;SDS011;9047;53.486;10.218;2024-03-08T10:41:45;29.73;;;15.77;;
17844;SDS011;9047;53.486;10.218;2024-03-08T10:44:21;30.17;;;15.90;;
17844;SDS011;9047;53.486;10.218;2024-03-08T10:47:00;26.88;;;15.73;;
17844;SDS011;9047;53.486;10.218;2024-03-08T10:49:30;26.48;;;16.02;;
17844;SDS011;9047;53.486;10.218;2024-03-08T10:52:01;28.98;;;15.70;;
17844;SDS011;9047;53.486;10.218;2024-03-08T10:54:29;25.67;;;14.95;;
17844;SDS011;9047;53.486;10.218;2024-03-08T10:56:58;26.98;;;15.07;;
17844;SDS011;9047;53.486;10.218;2024-03-08T10:59:27;26.65;;;14.75;;
17844;SDS011;9047;53.486;10.218;2024-03-08T11:01:56;26.33;;;14.40;;
17844;SDS011;9047;53.486;10.218;2024-03-08T11:04:23;24.27;;;13.88;;
17844;SDS011;9047;53.486;10.218;2024-03-08T11:06:52;26.70;;;14.55;;
17844;SDS011;9047;53.486;10.218;2024-03-08T11:09:30;24.33;;;14.18;;
17844;SDS011;9047;53.486;10.218;2024-03-08T11:14:58;23.77;;;14.30;;
17844;SDS011;9047;53.486;10.218;2024-03-08T11:17:45;25.00;;;14.07;;
17844;SDS011;9047;53.486;10.218;2024-03-08T11:20:14;26.67;;;14.57;;
17844;SDS011;9047;53.486;10.218;2024-03-08T11:22:47;22.42;;;13.23;;
17844;SDS011;9047;53.486;10.218;2024-03-08T11:25:33;24.00;;;13.43;;
17844;SDS011;9047;53.486;10.218;2024-03-08T11:33:54;24.58;;;13.55;;
17844;SDS011;9047;53.486;10.218;2024-03-08T11:36:23;24.55;;;13.93;;
17844;SDS011;9047;53.486;10.218;2024-03-08T11:38:56;23.38;;;13.52;;
17844;SDS011;9047;53.486;10.218;2024-03-08T11:41:24;22.77;;;13.43;;
17844;SDS011;9047;53.486;10.218;2024-03-08T11:44:01;22.35;;;13.63;;
17844;SDS011;9047;53.486;10.218;2024-03-08T11:46:33;25.30;;;13.32;;
17844;SDS011;9047;53.486;10.218;2024-03-08T11:49:02;24.30;;;13.23;;
17844;SDS011;9047;53.486;10.218;2024-03-08T11:51:30;25.15;;;13.98;;
17844;SDS011;9047;53.486;10.218;2024-03-08T11:53:59;21.52;;;13.25;;
17844;SDS011;9047;53.486;10.218;2024-03-08T11:56:26;25.13;;;13.60;;
17844;SDS011;9047;53.486;10.218;2024-03-08T11:58:55;24.63;;;14.07;;
17844;SDS011;9047;53.486;10.218;2024-03-08T12:01:24;23.13;;;13.38;;
17844;SDS011;9047;53.486;10.218;2024-03-08T12:03:54;24.15;;;13.75;;
17844;SDS011;9047;53.486;10.218;2024-03-08T12:06:24;24.02;;;13.93;;
17844;SDS011;9047;53.486;10.218;2024-03-08T12:08:52;23.38;;;13.40;;
17844;SDS011;9047;53.486;10.218;2024-03-08T12:11:19;21.77;;;13.35;;
17844;SDS011;9047;53.486;10.218;2024-03-08T12:13:48;22.65;;;12.98;;
17844;SDS011;9047;53.486;10.218;2024-03-08T12:16:17;24.20;;;13.07;;
17844;SDS011;9047;53.486;10.218;2024-03-08T12:18:46;22.48;;;13.23;;
17844;SDS011;9047;53.486;10.218;2024-03-08T12:21:19;21.50;;;13.20;;
17844;SDS011;9047;53.486;10.218;2024-03-08T12:23:55;22.80;;;12.85;;
17844;SDS011;9047;53.486;10.218;2024-03-08T12:26:31;23.25;;;12.75;;
17844;SDS011;9047;53.486;10.218;2024-03-08T12:29:14;20.73;;;12.65;;
17844;SDS011;9047;53.486;10.218;2024-03-08T12:31:45;21.73;;;12.23;;
17844;SDS011;9047;53.486;10.218;2024-03-08T12:34:18;21.45;;;12.30;;
17844;SDS011;9047;53.486;10.218;2024-03-08T12:36:51;20.48;;;11.93;;
17844;SDS011;9047;53.486;10.218;2024-03-08T12:39:21;20.00;;;11.88;;
17844;SDS011;9047;53.486;10.218;2024-03-08T12:41:51;20.40;;;12.02;;
17844;SDS011;9047;53.486;10.218;2024-03-08T12:44:20;24.27;;;13.10;;
17844;SDS011;9047;53.486;10.218;2024-03-08T12:46:49;21.70;;;12.32;;
17844;SDS011;9047;53.486;10.218;2024-03-08T12:49:16;22.63;;;12.80;;
17844;SDS011;9047;53.486;10.218;2024-03-08T12:51:53;20.70;;;12.48;;
17844;SDS011;9047;53.486;10.218;2024-03-08T12:54:23;22.77;;;12.35;;
17844;SDS011;9047;53.486;10.218;2024-03-08T12:56:50;21.83;;;12.10;;
17844;SDS011;9047;53.486;10.218;2024-03-08T12:59:19;20.95;;;12.45;;
17844;SDS011;9047;53.486;10.218;2024-03-08T13:01:48;21.08;;;12.52;;
17844;SDS011;9047;53.486;10.218;2024-03-08T13:04:18;23.45;;;12.40;;
17844;SDS011;9047;53.486;10.218;2024-03-08T13:06:46;20.95;;;12.27;;
17844;SDS011;9047;53.486;10.218;2024-03-08T13:09:16;19.52;;;11.30;;
17844;SDS011;9047;53.486;10.218;2024-03-08T13:11:45;18.88;;;11.73;;
17844;SDS011;9047;53.486;10.218;2024-03-08T13:14:12;19.30;;;11.07;;
17844;SDS011;9047;53.486;10.218;2024-03-08T13:16:41;19.10;;;11.43;;
17844;SDS011;9047;53.486;10.218;2024-03-08T13:19:12;19.35;;;11.63;;
17844;SDS011;9047;53.486;10.218;2024-03-08T13:21:39;17.75;;;10.98;;
17844;SDS011;9047;53.486;10.218;2024-03-08T13:24:16;20.27;;;11.90;;
17844;SDS011;9047;53.486;10.218;2024-03-08T13:26:44;20.88;;;12.35;;
17844;SDS011;9047;53.486;10.218;2024-03-08T13:29:12;20.05;;;11.73;;
17844;SDS011;9047;53.486;10.218;2024-03-08T13:31:40;22.10;;;12.82;;
17844;SDS011;9047;53.486;10.218;2024-03-08T13:34:08;20.70;;;11.88;;
17844;SDS011;9047;53.486;10.218;2024-03-08T13:36:38;21.85;;;11.85;;
17844;SDS011;9047;53.486;10.218;2024-03-08T13:39:09;22.42;;;11.65;;
17844;SDS011;9047;53.486;10.218;2024-03-08T13:41:42;19.05;;;11.90;;
17844;SDS011;9047;53.486;10.218;2024-03-08T13:44:11;22.05;;;12.02;;
17844;SDS011;9047;53.486;10.218;2024-03-08T13:46:40;20.38;;;11.82;;
17844;SDS011;9047;53.486;10.218;2024-03-08T13:49:07;22.27;;;12.48;;
17844;SDS011;9047;53.486;10.218;2024-03-08T13:51:39;19.20;;;12.43;;
17844;SDS011;9047;53.486;10.218;2024-03-08T13:54:07;21.35;;;11.82;;
17844;SDS011;9047;53.486;10.218;2024-03-08T13:56:35;21.40;;;12.05;;
17844;SDS011;9047;53.486;10.218;2024-03-08T13:59:04;20.10;;;12.45;;
17844;SDS011;9047;53.486;10.218;2024-03-08T14:01:34;20.85;;;11.82;;
17844;SDS011;9047;53.486;10.218;2024-03-08T14:04:03;18.98;;;11.73;;
17844;SDS011;9047;53.486;10.218;2024-03-08T14:06:33;22.77;;;12.38;;
17844;SDS011;9047;53.486;10.218;2024-03-08T14:09:05;21.27;;;11.50;;
17844;SDS011;9047;53.486;10.218;2024-03-08T14:11:34;18.95;;;11.05;;
17844;SDS011;9047;53.486;10.218;2024-03-08T14:14:01;20.33;;;11.88;;
17844;SDS011;9047;53.486;10.218;2024-03-08T14:16:34;17.77;;;11.10;;
17844;SDS011;9047;53.486;10.218;2024-03-08T14:19:02;18.33;;;11.75;;
17844;SDS011;9047;53.486;10.218;2024-03-08T14:21:30;19.83;;;12.25;;
17844;SDS011;9047;53.486;10.218;2024-03-08T14:23:58;19.17;;;10.95;;
17844;SDS011;9047;53.486;10.218;2024-03-08T14:26:27;17.45;;;10.45;;
17844;SDS011;9047;53.486;10.218;2024-03-08T14:28:57;19.55;;;11.27;;
17844;SDS011;9047;53.486;10.218;2024-03-08T14:31:25;17.40;;;10.88;;
17844;SDS011;9047;53.486;10.218;2024-03-08T14:33:55;17.85;;;10.60;;
17844;SDS011;9047;53.486;10.218;2024-03-08T14:36:23;19.00;;;11.40;;
17844;SDS011;9047;53.486;10.218;2024-03-08T14:38:54;17.60;;;10.82;;
17844;SDS011;9047;53.486;10.218;2024-03-08T14:41:23;17.83;;;11.70;;